KSCK/SCK METAR and TAF weather

Enter ICAO airport designator
Station Type Date Time Source
KSCK METAR 2020/09/28 07:55 UTC NOAA

KSCK 280755Z AUTO 01004KT 10SM CLR 21/11 A2987 RMK AO2 SLP116 T02060106 403440194


Station Type Date Time Source
KSCK Decoded METAR 2020/09/28 07:55 UTC NOAA

STOCKTON METROPOLITAN AIRPORT , CA, United States (KSCK) 37-54N 121-14W 10M
Sep 28, 2020 - 03:55 AM EDT / 2020.09.28 0755 UTC
Wind: from the N (010 degrees) at 5 MPH (4 KT):0
Visibility: 10 mile(s):0
Sky conditions: clear
Temperature: 69.1 F (20.6 C)
Dew Point: 51.1 F (10.6 C)
Relative Humidity: 52%
Pressure (altimeter): 29.87 in. Hg (1011 hPa)
ob: KSCK 280755Z AUTO 01004KT 10SM CLR 21/11 A2987 RMK AO2 SLP116 T02060106 403440194
cycle: 8

Station Type Date Time Source
KSCK TAF 2020/09/28 06:42 UTC NOAA

TAF KSCK 280541Z 2806/2906 VRB04KT P6SM SKC
FM281800 36005KT P6SM SKC

Example: see airport list